Terminal Aerodrome Forecast
Issued by NWS Jackson, KY

Home | Current Version | Previous Version | Text Only | Print | Product List | Glossary On
Versions: 1 2 3 4 5 6 7 8 9 10 11 12 13 14
000
FTUS43 KJKL 272334
TAFJKL
TAF
KJKL 272334Z 2800/2824 VRB03KT P6SM VCSH SCT060 BKN200
     FM280400 VRB03KT P6SM BKN250
      TEMPO 2809/2812 4SM BR
     FM281800 VRB03KT P6SM BKN060=

USA.gov is the U.S. government's official web portal to all federal, state and local government web resources and services.